sensor_id;sensor_type;location;lat;lon;timestamp;temperature;humidity
52127;DHT22;38120;53.176;6.614;2023-05-08T00:00:42;11.40;99.90
52127;DHT22;38120;53.176;6.614;2023-05-08T00:03:10;11.40;99.90
52127;DHT22;38120;53.176;6.614;2023-05-08T00:05:36;11.40;99.90
52127;DHT22;38120;53.176;6.614;2023-05-08T00:08:08;11.40;99.90
52127;DHT22;38120;53.176;6.614;2023-05-08T00:10:33;11.30;99.90
52127;DHT22;38120;53.176;6.614;2023-05-08T00:12:59;11.30;99.90
52127;DHT22;38120;53.176;6.614;2023-05-08T00:15:25;11.30;99.90
52127;DHT22;38120;53.176;6.614;2023-05-08T00:17:50;11.30;99.90
52127;DHT22;38120;53.176;6.614;2023-05-08T00:20:16;11.50;99.90
52127;DHT22;38120;53.176;6.614;2023-05-08T00:22:42;11.20;99.90
52127;DHT22;38120;53.176;6.614;2023-05-08T00:25:07;11.20;99.90
52127;DHT22;38120;53.176;6.614;2023-05-08T00:27:33;11.10;99.90
52127;DHT22;38120;53.176;6.614;2023-05-08T00:29:59;11.20;99.90
52127;DHT22;38120;53.176;6.614;2023-05-08T00:32:25;11.20;99.90
52127;DHT22;38120;53.176;6.614;2023-05-08T00:34:50;11.20;99.90
52127;DHT22;38120;53.176;6.614;2023-05-08T00:37:16;11.20;99.90
52127;DHT22;38120;53.176;6.614;2023-05-08T00:39:44;11.10;99.90
52127;DHT22;38120;53.176;6.614;2023-05-08T00:42:10;11.20;99.90
52127;DHT22;38120;53.176;6.614;2023-05-08T00:44:45;11.20;99.90
52127;DHT22;38120;53.176;6.614;2023-05-08T00:47:20;11.10;99.90
52127;DHT22;38120;53.176;6.614;2023-05-08T00:49:53;11.10;99.90
52127;DHT22;38120;53.176;6.614;2023-05-08T00:52:19;11.10;99.90
52127;DHT22;38120;53.176;6.614;2023-05-08T00:54:54;11.10;99.90
52127;DHT22;38120;53.176;6.614;2023-05-08T00:57:23;11.10;99.90
52127;DHT22;38120;53.176;6.614;2023-05-08T00:59:49;11.00;99.90
52127;DHT22;38120;53.176;6.614;2023-05-08T01:02:15;11.00;99.90
52127;DHT22;38120;53.176;6.614;2023-05-08T01:04:41;11.00;99.90
52127;DHT22;38120;53.176;6.614;2023-05-08T01:07:10;11.00;99.90
52127;DHT22;38120;53.176;6.614;2023-05-08T01:09:36;10.90;99.90
52127;DHT22;38120;53.176;6.614;2023-05-08T01:12:14;10.90;99.90
52127;DHT22;38120;53.176;6.614;2023-05-08T01:34:04;10.80;99.90
52127;DHT22;38120;53.176;6.614;2023-05-08T01:36:50;10.70;99.90
52127;DHT22;38120;53.176;6.614;2023-05-08T01:40:24;10.70;99.90
52127;DHT22;38120;53.176;6.614;2023-05-08T01:45:02;10.70;99.90
52127;DHT22;38120;53.176;6.614;2023-05-08T01:47:32;10.60;99.90
52127;DHT22;38120;53.176;6.614;2023-05-08T01:50:15;10.60;99.90
52127;DHT22;38120;53.176;6.614;2023-05-08T01:52:57;10.70;99.90
52127;DHT22;38120;53.176;6.614;2023-05-08T01:55:30;10.50;99.90
52127;DHT22;38120;53.176;6.614;2023-05-08T01:57:57;10.50;99.90
52127;DHT22;38120;53.176;6.614;2023-05-08T02:00:25;10.50;99.90
52127;DHT22;38120;53.176;6.614;2023-05-08T02:02:53;10.50;99.90
52127;DHT22;38120;53.176;6.614;2023-05-08T02:05:23;10.40;99.90
52127;DHT22;38120;53.176;6.614;2023-05-08T02:07:51;10.50;99.90
52127;DHT22;38120;53.176;6.614;2023-05-08T02:10:19;10.40;99.90
52127;DHT22;38120;53.176;6.614;2023-05-08T02:12:47;10.40;99.90
52127;DHT22;38120;53.176;6.614;2023-05-08T02:15:15;10.30;99.90
52127;DHT22;38120;53.176;6.614;2023-05-08T02:17:42;10.30;99.90
52127;DHT22;38120;53.176;6.614;2023-05-08T02:20:11;10.30;99.90
52127;DHT22;38120;53.176;6.614;2023-05-08T02:22:44;10.30;99.90
52127;DHT22;38120;53.176;6.614;2023-05-08T02:25:11;10.30;99.90
52127;DHT22;38120;53.176;6.614;2023-05-08T02:27:40;10.20;99.90
52127;DHT22;38120;53.176;6.614;2023-05-08T02:30:13;10.10;99.90
52127;DHT22;38120;53.176;6.614;2023-05-08T02:32:44;10.10;99.90
52127;DHT22;38120;53.176;6.614;2023-05-08T02:35:15;10.10;99.90
52127;DHT22;38120;53.176;6.614;2023-05-08T02:37:44;10.10;99.90
52127;DHT22;38120;53.176;6.614;2023-05-08T02:40:10;10.00;99.90
52127;DHT22;38120;53.176;6.614;2023-05-08T02:42:37;9.90;99.90
52127;DHT22;38120;53.176;6.614;2023-05-08T02:45:03;10.00;99.90
52127;DHT22;38120;53.176;6.614;2023-05-08T02:52:51;9.90;99.90
52127;DHT22;38120;53.176;6.614;2023-05-08T02:58:05;9.90;99.90
52127;DHT22;38120;53.176;6.614;2023-05-08T03:00:39;9.80;99.90
52127;DHT22;38120;53.176;6.614;2023-05-08T03:03:22;9.80;99.90
52127;DHT22;38120;53.176;6.614;2023-05-08T03:05:57;9.70;99.90
52127;DHT22;38120;53.176;6.614;2023-05-08T03:08:30;9.80;99.90
52127;DHT22;38120;53.176;6.614;2023-05-08T03:11:00;9.80;99.90
52127;DHT22;38120;53.176;6.614;2023-05-08T03:13:30;9.70;99.90
52127;DHT22;38120;53.176;6.614;2023-05-08T03:15:59;9.90;99.90
52127;DHT22;38120;53.176;6.614;2023-05-08T03:18:40;9.70;99.90
52127;DHT22;38120;53.176;6.614;2023-05-08T03:21:08;9.90;99.90
52127;DHT22;38120;53.176;6.614;2023-05-08T03:23:37;9.70;99.90
52127;DHT22;38120;53.176;6.614;2023-05-08T03:26:04;9.70;99.90
52127;DHT22;38120;53.176;6.614;2023-05-08T03:28:31;9.70;99.90
52127;DHT22;38120;53.176;6.614;2023-05-08T03:30:57;9.70;99.90
52127;DHT22;38120;53.176;6.614;2023-05-08T03:33:24;9.60;99.90
52127;DHT22;38120;53.176;6.614;2023-05-08T03:35:52;9.60;99.90
52127;DHT22;38120;53.176;6.614;2023-05-08T03:38:18;9.60;99.90
52127;DHT22;38120;53.176;6.614;2023-05-08T03:40:45;9.60;99.90
52127;DHT22;38120;53.176;6.614;2023-05-08T03:43:11;9.60;99.90
52127;DHT22;38120;53.176;6.614;2023-05-08T03:45:40;9.60;99.90
52127;DHT22;38120;53.176;6.614;2023-05-08T03:48:07;9.70;99.90
52127;DHT22;38120;53.176;6.614;2023-05-08T03:50:34;9.60;99.90
52127;DHT22;38120;53.176;6.614;2023-05-08T03:53:01;9.60;99.90
52127;DHT22;38120;53.176;6.614;2023-05-08T03:55:26;9.60;99.90
52127;DHT22;38120;53.176;6.614;2023-05-08T04:01:08;9.60;99.90
52127;DHT22;38120;53.176;6.614;2023-05-08T04:04:18;9.60;99.90
52127;DHT22;38120;53.176;6.614;2023-05-08T04:15:18;9.50;99.90
52127;DHT22;38120;53.176;6.614;2023-05-08T04:17:57;9.50;99.90
52127;DHT22;38120;53.176;6.614;2023-05-08T04:20:26;9.50;99.90
52127;DHT22;38120;53.176;6.614;2023-05-08T04:22:54;9.50;99.90
52127;DHT22;38120;53.176;6.614;2023-05-08T04:25:20;9.60;99.90
52127;DHT22;38120;53.176;6.614;2023-05-08T04:27:47;9.60;99.90
52127;DHT22;38120;53.176;6.614;2023-05-08T04:30:13;9.60;99.90
52127;DHT22;38120;53.176;6.614;2023-05-08T04:32:40;9.60;99.90
52127;DHT22;38120;53.176;6.614;2023-05-08T04:35:07;9.60;99.90
52127;DHT22;38120;53.176;6.614;2023-05-08T04:37:32;9.70;99.90
52127;DHT22;38120;53.176;6.614;2023-05-08T04:39:59;10.40;99.90
52127;DHT22;38120;53.176;6.614;2023-05-08T04:42:25;9.60;99.90
52127;DHT22;38120;53.176;6.614;2023-05-08T04:44:52;9.60;99.90
52127;DHT22;38120;53.176;6.614;2023-05-08T04:47:18;9.60;99.90
52127;DHT22;38120;53.176;6.614;2023-05-08T04:49:44;9.70;99.90
52127;DHT22;38120;53.176;6.614;2023-05-08T04:52:10;9.70;99.90
52127;DHT22;38120;53.176;6.614;2023-05-08T04:54:36;9.80;99.90
52127;DHT22;38120;53.176;6.614;2023-05-08T04:57:02;9.80;99.90
52127;DHT22;38120;53.176;6.614;2023-05-08T04:59:27;9.80;99.90
52127;DHT22;38120;53.176;6.614;2023-05-08T05:01:54;9.80;99.90
52127;DHT22;38120;53.176;6.614;2023-05-08T05:04:23;9.90;99.90
52127;DHT22;38120;53.176;6.614;2023-05-08T05:06:49;9.90;99.90
52127;DHT22;38120;53.176;6.614;2023-05-08T05:09:15;9.90;99.90
52127;DHT22;38120;53.176;6.614;2023-05-08T05:11:41;9.90;99.90
52127;DHT22;38120;53.176;6.614;2023-05-08T05:14:06;10.00;99.90
52127;DHT22;38120;53.176;6.614;2023-05-08T05:16:32;10.20;99.90
52127;DHT22;38120;53.176;6.614;2023-05-08T05:18:58;10.00;99.90
52127;DHT22;38120;53.176;6.614;2023-05-08T05:21:24;10.10;99.90
52127;DHT22;38120;53.176;6.614;2023-05-08T05:23:51;10.20;99.90
52127;DHT22;38120;53.176;6.614;2023-05-08T05:26:17;10.20;99.90
52127;DHT22;38120;53.176;6.614;2023-05-08T05:28:43;10.30;99.90
52127;DHT22;38120;53.176;6.614;2023-05-08T05:31:09;10.40;99.90
52127;DHT22;38120;53.176;6.614;2023-05-08T05:33:35;10.40;99.90
52127;DHT22;38120;53.176;6.614;2023-05-08T05:36:00;10.50;99.90
52127;DHT22;38120;53.176;6.614;2023-05-08T05:38:26;10.70;99.90
52127;DHT22;38120;53.176;6.614;2023-05-08T05:40:52;10.70;99.90
52127;DHT22;38120;53.176;6.614;2023-05-08T05:43:18;10.70;99.90
52127;DHT22;38120;53.176;6.614;2023-05-08T05:45:43;10.80;99.90
52127;DHT22;38120;53.176;6.614;2023-05-08T05:48:09;10.80;99.90
52127;DHT22;38120;53.176;6.614;2023-05-08T05:50:35;10.90;99.90
52127;DHT22;38120;53.176;6.614;2023-05-08T05:53:02;11.00;99.90
52127;DHT22;38120;53.176;6.614;2023-05-08T05:55:28;11.10;99.90
52127;DHT22;38120;53.176;6.614;2023-05-08T05:57:54;11.10;99.90
52127;DHT22;38120;53.176;6.614;2023-05-08T06:00:20;11.10;99.90
52127;DHT22;38120;53.176;6.614;2023-05-08T06:02:46;11.30;99.90
52127;DHT22;38120;53.176;6.614;2023-05-08T06:05:14;11.30;99.90
52127;DHT22;38120;53.176;6.614;2023-05-08T06:07:40;11.40;99.90
52127;DHT22;38120;53.176;6.614;2023-05-08T06:10:06;11.40;99.90
52127;DHT22;38120;53.176;6.614;2023-05-08T06:12:32;11.50;99.90
52127;DHT22;38120;53.176;6.614;2023-05-08T06:14:58;11.60;99.90
52127;DHT22;38120;53.176;6.614;2023-05-08T06:17:23;11.70;99.90
52127;DHT22;38120;53.176;6.614;2023-05-08T06:19:49;11.70;99.90
52127;DHT22;38120;53.176;6.614;2023-05-08T06:22:19;11.80;99.90
52127;DHT22;38120;53.176;6.614;2023-05-08T06:25:03;11.90;99.90
52127;DHT22;38120;53.176;6.614;2023-05-08T06:27:31;11.90;99.90
52127;DHT22;38120;53.176;6.614;2023-05-08T06:29:58;12.00;99.90
52127;DHT22;38120;53.176;6.614;2023-05-08T06:32:23;12.10;99.90
52127;DHT22;38120;53.176;6.614;2023-05-08T06:34:49;12.30;99.90
52127;DHT22;38120;53.176;6.614;2023-05-08T06:37:15;12.40;99.90
52127;DHT22;38120;53.176;6.614;2023-05-08T06:39:40;12.40;99.90
52127;DHT22;38120;53.176;6.614;2023-05-08T06:42:06;12.60;99.90
52127;DHT22;38120;53.176;6.614;2023-05-08T06:44:32;12.50;99.90
52127;DHT22;38120;53.176;6.614;2023-05-08T06:46:58;12.50;99.90
52127;DHT22;38120;53.176;6.614;2023-05-08T06:49:24;12.50;99.90
52127;DHT22;38120;53.176;6.614;2023-05-08T06:51:50;12.30;99.90
52127;DHT22;38120;53.176;6.614;2023-05-08T06:54:15;12.40;99.90
52127;DHT22;38120;53.176;6.614;2023-05-08T06:56:41;12.40;99.90
52127;DHT22;38120;53.176;6.614;2023-05-08T06:59:07;12.50;99.90
52127;DHT22;38120;53.176;6.614;2023-05-08T07:01:33;12.40;99.90
52127;DHT22;38120;53.176;6.614;2023-05-08T07:03:59;12.60;99.90
52127;DHT22;38120;53.176;6.614;2023-05-08T07:06:26;12.50;99.90
52127;DHT22;38120;53.176;6.614;2023-05-08T07:08:52;12.60;99.90
52127;DHT22;38120;53.176;6.614;2023-05-08T07:11:17;12.60;99.90
52127;DHT22;38120;53.176;6.614;2023-05-08T07:13:43;12.60;99.90
52127;DHT22;38120;53.176;6.614;2023-05-08T07:16:13;12.60;99.90
52127;DHT22;38120;53.176;6.614;2023-05-08T07:18:38;12.70;99.90
52127;DHT22;38120;53.176;6.614;2023-05-08T07:21:04;12.70;99.90
52127;DHT22;38120;53.176;6.614;2023-05-08T07:23:30;12.80;99.90
52127;DHT22;38120;53.176;6.614;2023-05-08T07:25:56;12.80;99.90
52127;DHT22;38120;53.176;6.614;2023-05-08T07:28:22;12.70;99.90
52127;DHT22;38120;53.176;6.614;2023-05-08T07:30:48;12.80;99.90
52127;DHT22;38120;53.176;6.614;2023-05-08T07:33:14;12.70;99.90
52127;DHT22;38120;53.176;6.614;2023-05-08T07:35:40;12.80;99.90
52127;DHT22;38120;53.176;6.614;2023-05-08T07:38:06;12.80;99.90
52127;DHT22;38120;53.176;6.614;2023-05-08T07:40:32;12.90;99.90
52127;DHT22;38120;53.176;6.614;2023-05-08T07:42:58;13.00;99.90
52127;DHT22;38120;53.176;6.614;2023-05-08T07:45:24;13.00;99.90
52127;DHT22;38120;53.176;6.614;2023-05-08T07:47:54;13.10;99.90
52127;DHT22;38120;53.176;6.614;2023-05-08T07:50:21;13.10;99.90
52127;DHT22;38120;53.176;6.614;2023-05-08T07:52:47;13.20;99.90
52127;DHT22;38120;53.176;6.614;2023-05-08T07:55:13;13.30;99.90
52127;DHT22;38120;53.176;6.614;2023-05-08T07:57:55;13.30;99.90
52127;DHT22;38120;53.176;6.614;2023-05-08T08:00:21;13.30;99.90
52127;DHT22;38120;53.176;6.614;2023-05-08T08:02:47;13.40;99.90
52127;DHT22;38120;53.176;6.614;2023-05-08T08:05:12;13.40;99.90
52127;DHT22;38120;53.176;6.614;2023-05-08T08:07:38;13.40;99.90
52127;DHT22;38120;53.176;6.614;2023-05-08T08:10:04;13.50;99.90
52127;DHT22;38120;53.176;6.614;2023-05-08T08:12:30;13.60;99.90
52127;DHT22;38120;53.176;6.614;2023-05-08T08:14:56;13.80;99.90
52127;DHT22;38120;53.176;6.614;2023-05-08T08:17:22;13.90;99.90
52127;DHT22;38120;53.176;6.614;2023-05-08T08:19:48;14.00;99.90
52127;DHT22;38120;53.176;6.614;2023-05-08T08:22:14;14.20;99.90
52127;DHT22;38120;53.176;6.614;2023-05-08T08:24:40;14.30;99.90
52127;DHT22;38120;53.176;6.614;2023-05-08T08:27:05;14.40;99.90
52127;DHT22;38120;53.176;6.614;2023-05-08T08:29:31;14.30;99.90
52127;DHT22;38120;53.176;6.614;2023-05-08T08:31:57;14.50;99.90
52127;DHT22;38120;53.176;6.614;2023-05-08T08:34:23;14.50;99.90
52127;DHT22;38120;53.176;6.614;2023-05-08T08:36:48;14.50;99.90
52127;DHT22;38120;53.176;6.614;2023-05-08T08:39:14;14.40;99.90
52127;DHT22;38120;53.176;6.614;2023-05-08T08:41:40;14.50;99.90
52127;DHT22;38120;53.176;6.614;2023-05-08T08:44:08;14.60;99.90
52127;DHT22;38120;53.176;6.614;2023-05-08T08:46:34;14.60;99.90
52127;DHT22;38120;53.176;6.614;2023-05-08T08:49:06;14.70;99.90
52127;DHT22;38120;53.176;6.614;2023-05-08T08:51:51;14.80;99.90
52127;DHT22;38120;53.176;6.614;2023-05-08T08:54:22;14.80;99.90
52127;DHT22;38120;53.176;6.614;2023-05-08T08:56:49;15.00;99.90
52127;DHT22;38120;53.176;6.614;2023-05-08T08:59:17;15.00;99.90
52127;DHT22;38120;53.176;6.614;2023-05-08T09:01:44;15.10;99.90
52127;DHT22;38120;53.176;6.614;2023-05-08T09:04:12;15.20;99.90
52127;DHT22;38120;53.176;6.614;2023-05-08T09:06:38;15.20;99.90
52127;DHT22;38120;53.176;6.614;2023-05-08T09:09:05;15.10;99.90
52127;DHT22;38120;53.176;6.614;2023-05-08T09:11:31;15.10;99.90
52127;DHT22;38120;53.176;6.614;2023-05-08T09:13:57;15.40;99.90
52127;DHT22;38120;53.176;6.614;2023-05-08T09:16:24;15.40;99.90
52127;DHT22;38120;53.176;6.614;2023-05-08T09:18:50;15.40;99.90
52127;DHT22;38120;53.176;6.614;2023-05-08T09:21:16;15.60;99.90
52127;DHT22;38120;53.176;6.614;2023-05-08T09:23:57;15.70;99.90
52127;DHT22;38120;53.176;6.614;2023-05-08T09:26:33;16.10;99.90
52127;DHT22;38120;53.176;6.614;2023-05-08T09:29:21;16.40;99.90
52127;DHT22;38120;53.176;6.614;2023-05-08T09:31:50;16.30;99.90
52127;DHT22;38120;53.176;6.614;2023-05-08T09:34:27;16.50;99.90
52127;DHT22;38120;53.176;6.614;2023-05-08T09:39:29;16.70;99.90
52127;DHT22;38120;53.176;6.614;2023-05-08T09:41:59;16.70;99.90
52127;DHT22;38120;53.176;6.614;2023-05-08T09:44:28;16.90;99.90
52127;DHT22;38120;53.176;6.614;2023-05-08T09:47:35;17.00;99.90
52127;DHT22;38120;53.176;6.614;2023-05-08T09:50:08;17.00;99.90
52127;DHT22;38120;53.176;6.614;2023-05-08T09:52:35;17.10;99.90
52127;DHT22;38120;53.176;6.614;2023-05-08T09:55:03;17.20;99.90
52127;DHT22;38120;53.176;6.614;2023-05-08T09:57:32;17.20;99.90
52127;DHT22;38120;53.176;6.614;2023-05-08T10:00:16;17.30;99.90
52127;DHT22;38120;53.176;6.614;2023-05-08T10:02:58;17.40;99.90
52127;DHT22;38120;53.176;6.614;2023-05-08T10:05:32;17.50;99.90
52127;DHT22;38120;53.176;6.614;2023-05-08T10:08:17;17.60;99.90
52127;DHT22;38120;53.176;6.614;2023-05-08T10:10:43;17.70;99.90
52127;DHT22;38120;53.176;6.614;2023-05-08T10:13:09;18.50;99.90
52127;DHT22;38120;53.176;6.614;2023-05-08T10:15:37;18.00;99.90
52127;DHT22;38120;53.176;6.614;2023-05-08T10:18:07;18.10;99.90
52127;DHT22;38120;53.176;6.614;2023-05-08T10:20:40;18.20;99.90
52127;DHT22;38120;53.176;6.614;2023-05-08T10:23:08;18.20;99.90
52127;DHT22;38120;53.176;6.614;2023-05-08T10:25:40;18.20;99.90
52127;DHT22;38120;53.176;6.614;2023-05-08T10:28:35;18.20;99.90
52127;DHT22;38120;53.176;6.614;2023-05-08T10:31:06;18.40;99.90
52127;DHT22;38120;53.176;6.614;2023-05-08T10:33:33;18.50;99.90
52127;DHT22;38120;53.176;6.614;2023-05-08T10:36:00;18.60;99.90
52127;DHT22;38120;53.176;6.614;2023-05-08T10:38:26;18.60;99.90
52127;DHT22;38120;53.176;6.614;2023-05-08T10:40:59;18.90;99.90
52127;DHT22;38120;53.176;6.614;2023-05-08T10:43:28;18.90;99.90
52127;DHT22;38120;53.176;6.614;2023-05-08T10:45:55;19.00;99.90
52127;DHT22;38120;53.176;6.614;2023-05-08T10:48:27;19.10;99.90
52127;DHT22;38120;53.176;6.614;2023-05-08T10:54:04;19.20;99.90
52127;DHT22;38120;53.176;6.614;2023-05-08T10:56:31;19.30;99.90
52127;DHT22;38120;53.176;6.614;2023-05-08T10:58:58;19.30;99.90
52127;DHT22;38120;53.176;6.614;2023-05-08T11:01:24;19.30;99.90
52127;DHT22;38120;53.176;6.614;2023-05-08T11:03:50;19.40;99.90
52127;DHT22;38120;53.176;6.614;2023-05-08T11:06:35;19.60;99.90
52127;DHT22;38120;53.176;6.614;2023-05-08T11:09:03;19.60;99.90
52127;DHT22;38120;53.176;6.614;2023-05-08T11:11:31;19.60;99.90
52127;DHT22;38120;53.176;6.614;2023-05-08T11:14:12;19.80;99.90
52127;DHT22;38120;53.176;6.614;2023-05-08T11:19:25;19.90;99.90
52127;DHT22;38120;53.176;6.614;2023-05-08T11:24:37;20.00;99.90
52127;DHT22;38120;53.176;6.614;2023-05-08T11:27:03;20.20;99.90
52127;DHT22;38120;53.176;6.614;2023-05-08T11:29:29;20.00;99.90
52127;DHT22;38120;53.176;6.614;2023-05-08T11:31:55;20.40;99.90
52127;DHT22;38120;53.176;6.614;2023-05-08T11:37:29;20.50;99.90
52127;DHT22;38120;53.176;6.614;2023-05-08T11:46:16;20.50;99.90
52127;DHT22;38120;53.176;6.614;2023-05-08T11:48:44;20.80;99.90
52127;DHT22;38120;53.176;6.614;2023-05-08T11:51:09;20.90;99.90
52127;DHT22;38120;53.176;6.614;2023-05-08T11:53:36;20.90;99.90
52127;DHT22;38120;53.176;6.614;2023-05-08T11:56:03;21.00;99.90
52127;DHT22;38120;53.176;6.614;2023-05-08T11:58:29;21.00;99.90
52127;DHT22;38120;53.176;6.614;2023-05-08T12:00:55;21.00;99.90
52127;DHT22;38120;53.176;6.614;2023-05-08T12:03:23;21.00;99.90
52127;DHT22;38120;53.176;6.614;2023-05-08T12:05:55;21.20;99.90
52127;DHT22;38120;53.176;6.614;2023-05-08T12:08:21;21.30;99.90
52127;DHT22;38120;53.176;6.614;2023-05-08T12:10:54;21.40;99.90
52127;DHT22;38120;53.176;6.614;2023-05-08T12:13:26;21.60;99.90
52127;DHT22;38120;53.176;6.614;2023-05-08T12:15:55;21.60;99.90
52127;DHT22;38120;53.176;6.614;2023-05-08T12:18:21;21.60;99.90
52127;DHT22;38120;53.176;6.614;2023-05-08T12:20:58;21.50;99.90
52127;DHT22;38120;53.176;6.614;2023-05-08T12:23:24;21.80;99.90
52127;DHT22;38120;53.176;6.614;2023-05-08T12:25:57;21.80;99.90
52127;DHT22;38120;53.176;6.614;2023-05-08T12:28:23;21.80;99.90
52127;DHT22;38120;53.176;6.614;2023-05-08T12:30:49;22.00;99.90
52127;DHT22;38120;53.176;6.614;2023-05-08T12:33:15;22.10;99.90
52127;DHT22;38120;53.176;6.614;2023-05-08T12:35:41;22.10;99.90
52127;DHT22;38120;53.176;6.614;2023-05-08T12:38:07;22.10;99.90
52127;DHT22;38120;53.176;6.614;2023-05-08T12:40:44;22.30;99.90
52127;DHT22;38120;53.176;6.614;2023-05-08T12:43:10;22.20;99.90
52127;DHT22;38120;53.176;6.614;2023-05-08T12:45:37;22.40;99.90
52127;DHT22;38120;53.176;6.614;2023-05-08T12:48:04;22.30;99.90
52127;DHT22;38120;53.176;6.614;2023-05-08T12:50:37;22.50;99.90
52127;DHT22;38120;53.176;6.614;2023-05-08T12:53:04;22.70;99.90
52127;DHT22;38120;53.176;6.614;2023-05-08T12:55:32;22.50;99.90
52127;DHT22;38120;53.176;6.614;2023-05-08T12:58:09;22.10;99.90
52127;DHT22;38120;53.176;6.614;2023-05-08T13:03:03;21.60;99.90
52127;DHT22;38120;53.176;6.614;2023-05-08T13:05:29;20.90;99.90
52127;DHT22;38120;53.176;6.614;2023-05-08T13:08:02;21.20;99.90
52127;DHT22;38120;53.176;6.614;2023-05-08T13:10:53;21.10;99.90
52127;DHT22;38120;53.176;6.614;2023-05-08T13:13:21;21.00;99.90
52127;DHT22;38120;53.176;6.614;2023-05-08T13:15:48;21.20;99.90
52127;DHT22;38120;53.176;6.614;2023-05-08T13:18:14;21.30;99.90
52127;DHT22;38120;53.176;6.614;2023-05-08T13:20:41;21.30;99.90
52127;DHT22;38120;53.176;6.614;2023-05-08T13:23:08;21.10;99.90
52127;DHT22;38120;53.176;6.614;2023-05-08T13:25:35;21.40;99.90
52127;DHT22;38120;53.176;6.614;2023-05-08T13:28:01;22.00;99.90
52127;DHT22;38120;53.176;6.614;2023-05-08T13:30:27;22.40;99.90
52127;DHT22;38120;53.176;6.614;2023-05-08T13:32:52;22.10;99.90
52127;DHT22;38120;53.176;6.614;2023-05-08T13:35:19;22.40;99.90
52127;DHT22;38120;53.176;6.614;2023-05-08T13:37:45;22.80;99.90
52127;DHT22;38120;53.176;6.614;2023-05-08T13:40:11;22.90;99.90
52127;DHT22;38120;53.176;6.614;2023-05-08T13:42:37;22.90;99.90
52127;DHT22;38120;53.176;6.614;2023-05-08T13:45:04;23.10;99.90
52127;DHT22;38120;53.176;6.614;2023-05-08T13:47:30;23.40;99.90
52127;DHT22;38120;53.176;6.614;2023-05-08T13:49:56;23.30;99.90
52127;DHT22;38120;53.176;6.614;2023-05-08T13:52:22;23.50;99.90
52127;DHT22;38120;53.176;6.614;2023-05-08T13:54:48;23.70;99.90
52127;DHT22;38120;53.176;6.614;2023-05-08T13:57:14;23.90;99.90
52127;DHT22;38120;53.176;6.614;2023-05-08T13:59:39;23.90;99.90
52127;DHT22;38120;53.176;6.614;2023-05-08T14:02:05;24.10;99.90
52127;DHT22;38120;53.176;6.614;2023-05-08T14:04:31;23.70;14.50
52127;DHT22;38120;53.176;6.614;2023-05-08T14:06:57;23.70;1.00
52127;DHT22;38120;53.176;6.614;2023-05-08T14:09:23;23.60;1.00
52127;DHT22;38120;53.176;6.614;2023-05-08T14:11:49;23.70;1.00
52127;DHT22;38120;53.176;6.614;2023-05-08T14:14:15;23.90;1.00
52127;DHT22;38120;53.176;6.614;2023-05-08T14:16:40;23.60;1.00
52127;DHT22;38120;53.176;6.614;2023-05-08T14:19:06;23.90;99.90
52127;DHT22;38120;53.176;6.614;2023-05-08T14:21:32;23.90;99.90
52127;DHT22;38120;53.176;6.614;2023-05-08T14:23:59;23.40;99.90
52127;DHT22;38120;53.176;6.614;2023-05-08T14:26:25;23.40;99.90
52127;DHT22;38120;53.176;6.614;2023-05-08T14:28:51;23.70;99.90
52127;DHT22;38120;53.176;6.614;2023-05-08T14:31:17;23.40;99.90
52127;DHT22;38120;53.176;6.614;2023-05-08T14:33:42;23.30;99.90
52127;DHT22;38120;53.176;6.614;2023-05-08T14:36:08;23.20;99.90
52127;DHT22;38120;53.176;6.614;2023-05-08T14:38:34;23.00;68.70
52127;DHT22;38120;53.176;6.614;2023-05-08T14:41:00;22.80;99.90
52127;DHT22;38120;53.176;6.614;2023-05-08T14:43:25;22.40;99.90
52127;DHT22;38120;53.176;6.614;2023-05-08T14:45:51;22.40;99.90
52127;DHT22;38120;53.176;6.614;2023-05-08T14:48:17;22.30;99.90
52127;DHT22;38120;53.176;6.614;2023-05-08T14:50:42;22.10;99.90
52127;DHT22;38120;53.176;6.614;2023-05-08T14:53:08;22.10;1.00
52127;DHT22;38120;53.176;6.614;2023-05-08T14:55:34;21.90;1.00
52127;DHT22;38120;53.176;6.614;2023-05-08T14:58:00;21.90;86.10
52127;DHT22;38120;53.176;6.614;2023-05-08T15:00:26;21.80;99.90
52127;DHT22;38120;53.176;6.614;2023-05-08T15:02:52;21.80;99.90
52127;DHT22;38120;53.176;6.614;2023-05-08T15:05:18;21.90;99.90
52127;DHT22;38120;53.176;6.614;2023-05-08T15:07:44;21.90;99.90
52127;DHT22;38120;53.176;6.614;2023-05-08T15:10:10;21.80;99.90
52127;DHT22;38120;53.176;6.614;2023-05-08T15:12:35;21.80;99.90
52127;DHT22;38120;53.176;6.614;2023-05-08T15:15:01;21.70;99.90
52127;DHT22;38120;53.176;6.614;2023-05-08T15:17:27;21.70;99.90
52127;DHT22;38120;53.176;6.614;2023-05-08T15:19:52;21.70;99.90
52127;DHT22;38120;53.176;6.614;2023-05-08T15:22:18;21.70;99.90
52127;DHT22;38120;53.176;6.614;2023-05-08T15:24:44;21.60;99.90
52127;DHT22;38120;53.176;6.614;2023-05-08T15:27:10;21.60;99.90
52127;DHT22;38120;53.176;6.614;2023-05-08T15:29:37;21.60;99.90
52127;DHT22;38120;53.176;6.614;2023-05-08T15:32:04;21.70;99.90
52127;DHT22;38120;53.176;6.614;2023-05-08T15:34:31;21.60;99.90
52127;DHT22;38120;53.176;6.614;2023-05-08T15:36:56;21.60;99.90
52127;DHT22;38120;53.176;6.614;2023-05-08T15:39:22;21.70;99.90
52127;DHT22;38120;53.176;6.614;2023-05-08T15:41:48;21.70;99.90
52127;DHT22;38120;53.176;6.614;2023-05-08T15:44:17;21.70;99.90
52127;DHT22;38120;53.176;6.614;2023-05-08T15:46:43;21.80;99.90
52127;DHT22;38120;53.176;6.614;2023-05-08T15:49:11;21.80;99.90
52127;DHT22;38120;53.176;6.614;2023-05-08T15:51:37;21.80;99.90
52127;DHT22;38120;53.176;6.614;2023-05-08T15:54:03;21.50;99.90
52127;DHT22;38120;53.176;6.614;2023-05-08T15:56:28;21.40;99.90
52127;DHT22;38120;53.176;6.614;2023-05-08T15:58:54;21.20;99.90
52127;DHT22;38120;53.176;6.614;2023-05-08T16:01:20;21.00;99.90
52127;DHT22;38120;53.176;6.614;2023-05-08T16:03:46;20.80;99.90
52127;DHT22;38120;53.176;6.614;2023-05-08T16:06:11;20.60;99.90
52127;DHT22;38120;53.176;6.614;2023-05-08T16:08:37;20.40;99.90
52127;DHT22;38120;53.176;6.614;2023-05-08T16:11:03;20.20;99.90
52127;DHT22;38120;53.176;6.614;2023-05-08T16:13:29;20.00;99.90
52127;DHT22;38120;53.176;6.614;2023-05-08T16:16:03;19.80;99.90
52127;DHT22;38120;53.176;6.614;2023-05-08T16:18:30;19.60;99.90
52127;DHT22;38120;53.176;6.614;2023-05-08T16:20:56;19.40;99.90
52127;DHT22;38120;53.176;6.614;2023-05-08T16:23:22;19.20;99.90
52127;DHT22;38120;53.176;6.614;2023-05-08T16:25:48;18.90;99.90
52127;DHT22;38120;53.176;6.614;2023-05-08T16:28:13;18.60;99.90
52127;DHT22;38120;53.176;6.614;2023-05-08T16:30:39;18.40;99.90
52127;DHT22;38120;53.176;6.614;2023-05-08T16:33:05;18.20;99.90
52127;DHT22;38120;53.176;6.614;2023-05-08T16:35:30;17.90;99.90
52127;DHT22;38120;53.176;6.614;2023-05-08T16:37:58;17.80;99.90
52127;DHT22;38120;53.176;6.614;2023-05-08T16:40:23;17.60;99.90
52127;DHT22;38120;53.176;6.614;2023-05-08T16:42:49;17.40;99.90